sensor_id;sensor_type;location;lat;lon;timestamp;temperature;humidity
56538;DHT22;42435;53.292;6.000;2023-08-31T00:00:14;13.40;77.80
56538;DHT22;42435;53.292;6.000;2023-08-31T00:02:42;13.50;77.90
56538;DHT22;42435;53.292;6.000;2023-08-31T00:05:08;13.50;78.00
56538;DHT22;42435;53.292;6.000;2023-08-31T00:07:34;13.50;77.90
56538;DHT22;42435;53.292;6.000;2023-08-31T00:10:01;13.50;77.80
56538;DHT22;42435;53.292;6.000;2023-08-31T00:12:34;13.50;77.80
56538;DHT22;42435;53.292;6.000;2023-08-31T00:15:01;13.50;77.80
56538;DHT22;42435;53.292;6.000;2023-08-31T00:17:29;13.50;77.80
56538;DHT22;42435;53.292;6.000;2023-08-31T00:19:55;13.40;77.90
56538;DHT22;42435;53.292;6.000;2023-08-31T00:22:23;13.40;78.00
56538;DHT22;42435;53.292;6.000;2023-08-31T00:24:52;13.40;78.10
56538;DHT22;42435;53.292;6.000;2023-08-31T00:27:18;13.40;78.20
56538;DHT22;42435;53.292;6.000;2023-08-31T00:29:43;13.30;78.30
56538;DHT22;42435;53.292;6.000;2023-08-31T00:32:15;13.20;78.40
56538;DHT22;42435;53.292;6.000;2023-08-31T00:34:40;13.30;78.40
56538;DHT22;42435;53.292;6.000;2023-08-31T00:37:06;13.20;78.40
56538;DHT22;42435;53.292;6.000;2023-08-31T00:39:32;13.10;78.60
56538;DHT22;42435;53.292;6.000;2023-08-31T00:41:59;13.10;78.60
56538;DHT22;42435;53.292;6.000;2023-08-31T00:44:24;13.00;78.60
56538;DHT22;42435;53.292;6.000;2023-08-31T00:46:50;13.00;78.60
56538;DHT22;42435;53.292;6.000;2023-08-31T00:49:16;13.00;78.70
56538;DHT22;42435;53.292;6.000;2023-08-31T00:51:43;12.90;78.80
56538;DHT22;42435;53.292;6.000;2023-08-31T00:54:14;12.90;78.90
56538;DHT22;42435;53.292;6.000;2023-08-31T00:56:41;12.80;79.00
56538;DHT22;42435;53.292;6.000;2023-08-31T00:59:07;12.80;79.10
56538;DHT22;42435;53.292;6.000;2023-08-31T01:01:39;12.80;79.20
56538;DHT22;42435;53.292;6.000;2023-08-31T01:04:46;12.80;79.30
56538;DHT22;42435;53.292;6.000;2023-08-31T01:07:34;12.70;79.40
56538;DHT22;42435;53.292;6.000;2023-08-31T01:10:11;12.70;79.40
56538;DHT22;42435;53.292;6.000;2023-08-31T01:15:38;12.70;79.50
56538;DHT22;42435;53.292;6.000;2023-08-31T01:18:06;12.70;79.40
56538;DHT22;42435;53.292;6.000;2023-08-31T01:20:40;12.60;79.60
56538;DHT22;42435;53.292;6.000;2023-08-31T01:23:18;12.60;79.80
56538;DHT22;42435;53.292;6.000;2023-08-31T01:25:45;12.60;79.90
56538;DHT22;42435;53.292;6.000;2023-08-31T01:28:12;12.60;79.80
56538;DHT22;42435;53.292;6.000;2023-08-31T01:30:37;12.60;79.80
56538;DHT22;42435;53.292;6.000;2023-08-31T01:33:03;12.70;79.90
56538;DHT22;42435;53.292;6.000;2023-08-31T01:35:42;12.70;80.00
56538;DHT22;42435;53.292;6.000;2023-08-31T01:38:10;12.70;80.10
56538;DHT22;42435;53.292;6.000;2023-08-31T01:40:43;12.70;80.10
56538;DHT22;42435;53.292;6.000;2023-08-31T01:43:10;12.70;80.20
56538;DHT22;42435;53.292;6.000;2023-08-31T01:45:37;12.70;80.20
56538;DHT22;42435;53.292;6.000;2023-08-31T01:48:04;12.80;80.30
56538;DHT22;42435;53.292;6.000;2023-08-31T01:50:30;12.80;80.40
56538;DHT22;42435;53.292;6.000;2023-08-31T01:52:55;12.80;80.40
56538;DHT22;42435;53.292;6.000;2023-08-31T01:55:24;12.80;80.40
56538;DHT22;42435;53.292;6.000;2023-08-31T01:57:50;12.80;80.40
56538;DHT22;42435;53.292;6.000;2023-08-31T02:00:19;12.90;80.40
56538;DHT22;42435;53.292;6.000;2023-08-31T02:02:49;12.90;80.50
56538;DHT22;42435;53.292;6.000;2023-08-31T02:05:14;12.90;80.40
56538;DHT22;42435;53.292;6.000;2023-08-31T02:07:40;12.90;80.40
56538;DHT22;42435;53.292;6.000;2023-08-31T02:10:06;12.90;80.40
56538;DHT22;42435;53.292;6.000;2023-08-31T02:12:35;13.00;80.40
56538;DHT22;42435;53.292;6.000;2023-08-31T02:15:04;13.00;80.40
56538;DHT22;42435;53.292;6.000;2023-08-31T02:17:29;13.00;80.30
56538;DHT22;42435;53.292;6.000;2023-08-31T02:19:55;13.00;80.20
56538;DHT22;42435;53.292;6.000;2023-08-31T02:22:21;13.00;80.20
56538;DHT22;42435;53.292;6.000;2023-08-31T02:24:46;13.00;80.20
56538;DHT22;42435;53.292;6.000;2023-08-31T02:27:15;13.00;80.30
56538;DHT22;42435;53.292;6.000;2023-08-31T02:29:41;13.00;80.30
56538;DHT22;42435;53.292;6.000;2023-08-31T02:32:07;13.00;80.30
56538;DHT22;42435;53.292;6.000;2023-08-31T02:34:33;12.90;80.40
56538;DHT22;42435;53.292;6.000;2023-08-31T02:36:58;12.90;80.40
56538;DHT22;42435;53.292;6.000;2023-08-31T02:39:24;12.90;80.40
56538;DHT22;42435;53.292;6.000;2023-08-31T02:41:49;12.90;80.50
56538;DHT22;42435;53.292;6.000;2023-08-31T02:44:15;12.90;80.60
56538;DHT22;42435;53.292;6.000;2023-08-31T02:46:40;12.90;80.70
56538;DHT22;42435;53.292;6.000;2023-08-31T02:49:06;12.90;80.90
56538;DHT22;42435;53.292;6.000;2023-08-31T02:51:32;12.90;81.10
56538;DHT22;42435;53.292;6.000;2023-08-31T02:53:57;12.90;81.20
56538;DHT22;42435;53.292;6.000;2023-08-31T02:56:23;12.90;81.30
56538;DHT22;42435;53.292;6.000;2023-08-31T02:58:48;12.90;81.40
56538;DHT22;42435;53.292;6.000;2023-08-31T03:01:14;12.90;81.40
56538;DHT22;42435;53.292;6.000;2023-08-31T03:03:41;12.90;81.60
56538;DHT22;42435;53.292;6.000;2023-08-31T03:06:08;12.90;81.70
56538;DHT22;42435;53.292;6.000;2023-08-31T03:08:34;13.00;81.80
56538;DHT22;42435;53.292;6.000;2023-08-31T03:11:00;13.00;81.80
56538;DHT22;42435;53.292;6.000;2023-08-31T03:13:25;13.00;81.80
56538;DHT22;42435;53.292;6.000;2023-08-31T03:15:51;13.00;81.80
56538;DHT22;42435;53.292;6.000;2023-08-31T03:18:17;13.00;81.90
56538;DHT22;42435;53.292;6.000;2023-08-31T03:20:42;13.10;81.90
56538;DHT22;42435;53.292;6.000;2023-08-31T03:23:08;13.10;81.90
56538;DHT22;42435;53.292;6.000;2023-08-31T03:25:35;13.00;81.90
56538;DHT22;42435;53.292;6.000;2023-08-31T03:28:00;13.00;82.00
56538;DHT22;42435;53.292;6.000;2023-08-31T03:30:26;13.00;82.00
56538;DHT22;42435;53.292;6.000;2023-08-31T03:32:51;13.00;82.10
56538;DHT22;42435;53.292;6.000;2023-08-31T03:35:17;13.00;82.10
56538;DHT22;42435;53.292;6.000;2023-08-31T03:37:42;13.00;82.20
56538;DHT22;42435;53.292;6.000;2023-08-31T03:40:08;13.00;82.40
56538;DHT22;42435;53.292;6.000;2023-08-31T03:42:34;13.00;82.50
56538;DHT22;42435;53.292;6.000;2023-08-31T03:45:00;13.00;82.60
56538;DHT22;42435;53.292;6.000;2023-08-31T03:47:26;12.90;82.70
56538;DHT22;42435;53.292;6.000;2023-08-31T03:49:52;13.00;82.70
56538;DHT22;42435;53.292;6.000;2023-08-31T03:52:18;12.90;82.70
56538;DHT22;42435;53.292;6.000;2023-08-31T03:54:43;12.90;82.70
56538;DHT22;42435;53.292;6.000;2023-08-31T03:57:09;12.90;82.80
56538;DHT22;42435;53.292;6.000;2023-08-31T03:59:38;12.90;82.80
56538;DHT22;42435;53.292;6.000;2023-08-31T04:02:04;12.90;82.90
56538;DHT22;42435;53.292;6.000;2023-08-31T04:04:30;12.90;83.00
56538;DHT22;42435;53.292;6.000;2023-08-31T04:07:01;12.90;83.00
56538;DHT22;42435;53.292;6.000;2023-08-31T04:09:46;12.90;83.10
56538;DHT22;42435;53.292;6.000;2023-08-31T04:12:16;12.90;83.10
56538;DHT22;42435;53.292;6.000;2023-08-31T04:14:54;12.90;83.10
56538;DHT22;42435;53.292;6.000;2023-08-31T04:17:37;12.90;83.10
56538;DHT22;42435;53.292;6.000;2023-08-31T04:20:18;12.80;83.00
56538;DHT22;42435;53.292;6.000;2023-08-31T04:22:43;12.80;82.90
56538;DHT22;42435;53.292;6.000;2023-08-31T04:25:12;12.70;82.80
56538;DHT22;42435;53.292;6.000;2023-08-31T04:27:37;12.70;82.90
56538;DHT22;42435;53.292;6.000;2023-08-31T04:30:08;12.70;83.00
56538;DHT22;42435;53.292;6.000;2023-08-31T04:32:34;12.70;83.00
56538;DHT22;42435;53.292;6.000;2023-08-31T04:35:01;12.60;82.90
56538;DHT22;42435;53.292;6.000;2023-08-31T04:37:27;12.60;83.00
56538;DHT22;42435;53.292;6.000;2023-08-31T04:39:52;12.60;82.90
56538;DHT22;42435;53.292;6.000;2023-08-31T04:42:18;12.60;82.90
56538;DHT22;42435;53.292;6.000;2023-08-31T04:44:44;12.60;82.90
56538;DHT22;42435;53.292;6.000;2023-08-31T04:47:11;12.60;82.90
56538;DHT22;42435;53.292;6.000;2023-08-31T04:49:38;12.50;82.90
56538;DHT22;42435;53.292;6.000;2023-08-31T04:52:09;12.50;82.90
56538;DHT22;42435;53.292;6.000;2023-08-31T04:54:59;12.50;82.90
56538;DHT22;42435;53.292;6.000;2023-08-31T04:57:25;12.50;82.80
56538;DHT22;42435;53.292;6.000;2023-08-31T04:59:51;12.50;82.70
56538;DHT22;42435;53.292;6.000;2023-08-31T05:02:18;12.40;82.80
56538;DHT22;42435;53.292;6.000;2023-08-31T05:05:08;12.40;82.80
56538;DHT22;42435;53.292;6.000;2023-08-31T05:07:43;12.40;82.80
56538;DHT22;42435;53.292;6.000;2023-08-31T05:10:09;12.40;82.70
56538;DHT22;42435;53.292;6.000;2023-08-31T05:12:38;12.40;82.70
56538;DHT22;42435;53.292;6.000;2023-08-31T05:15:07;12.40;82.70
56538;DHT22;42435;53.292;6.000;2023-08-31T05:17:33;12.40;82.70
56538;DHT22;42435;53.292;6.000;2023-08-31T05:19:59;12.40;82.70
56538;DHT22;42435;53.292;6.000;2023-08-31T05:22:25;12.40;82.70
56538;DHT22;42435;53.292;6.000;2023-08-31T05:25:02;12.40;82.80
56538;DHT22;42435;53.292;6.000;2023-08-31T05:27:29;12.40;82.80
56538;DHT22;42435;53.292;6.000;2023-08-31T05:29:56;12.40;82.80
56538;DHT22;42435;53.292;6.000;2023-08-31T05:32:22;12.50;82.70
56538;DHT22;42435;53.292;6.000;2023-08-31T05:34:47;12.50;82.80
56538;DHT22;42435;53.292;6.000;2023-08-31T05:37:14;12.50;82.80
56538;DHT22;42435;53.292;6.000;2023-08-31T05:39:40;12.50;82.80
56538;DHT22;42435;53.292;6.000;2023-08-31T05:42:06;12.60;82.80
56538;DHT22;42435;53.292;6.000;2023-08-31T05:44:31;12.60;82.90
56538;DHT22;42435;53.292;6.000;2023-08-31T05:46:57;12.70;82.90
56538;DHT22;42435;53.292;6.000;2023-08-31T05:49:23;12.70;83.00
56538;DHT22;42435;53.292;6.000;2023-08-31T05:51:49;12.80;83.10
56538;DHT22;42435;53.292;6.000;2023-08-31T05:54:14;12.80;83.10
56538;DHT22;42435;53.292;6.000;2023-08-31T05:56:40;12.90;83.20
56538;DHT22;42435;53.292;6.000;2023-08-31T05:59:06;12.90;83.20
56538;DHT22;42435;53.292;6.000;2023-08-31T06:01:33;13.00;83.30
56538;DHT22;42435;53.292;6.000;2023-08-31T06:04:00;13.10;83.30
56538;DHT22;42435;53.292;6.000;2023-08-31T06:06:36;13.10;83.40
56538;DHT22;42435;53.292;6.000;2023-08-31T06:09:05;13.30;83.50
56538;DHT22;42435;53.292;6.000;2023-08-31T06:11:32;13.40;83.40
56538;DHT22;42435;53.292;6.000;2023-08-31T06:13:58;13.40;83.40
56538;DHT22;42435;53.292;6.000;2023-08-31T06:16:23;13.60;83.50
56538;DHT22;42435;53.292;6.000;2023-08-31T06:18:51;13.80;83.50
56538;DHT22;42435;53.292;6.000;2023-08-31T06:21:17;13.90;83.30
56538;DHT22;42435;53.292;6.000;2023-08-31T06:23:42;14.00;83.20
56538;DHT22;42435;53.292;6.000;2023-08-31T06:26:08;14.20;83.00
56538;DHT22;42435;53.292;6.000;2023-08-31T06:28:33;14.40;82.60
56538;DHT22;42435;53.292;6.000;2023-08-31T06:30:59;14.60;82.30
56538;DHT22;42435;53.292;6.000;2023-08-31T06:33:25;14.70;81.90
56538;DHT22;42435;53.292;6.000;2023-08-31T06:35:50;15.00;81.70
56538;DHT22;42435;53.292;6.000;2023-08-31T06:38:20;15.10;81.30
56538;DHT22;42435;53.292;6.000;2023-08-31T06:40:46;15.30;81.10
56538;DHT22;42435;53.292;6.000;2023-08-31T06:43:15;15.40;80.90
56538;DHT22;42435;53.292;6.000;2023-08-31T06:45:40;15.60;80.30
56538;DHT22;42435;53.292;6.000;2023-08-31T06:48:06;15.80;79.90
56538;DHT22;42435;53.292;6.000;2023-08-31T06:50:33;15.90;79.60
56538;DHT22;42435;53.292;6.000;2023-08-31T06:53:00;16.00;79.10
56538;DHT22;42435;53.292;6.000;2023-08-31T06:55:26;16.20;78.80
56538;DHT22;42435;53.292;6.000;2023-08-31T06:57:51;16.40;78.40
56538;DHT22;42435;53.292;6.000;2023-08-31T07:00:19;16.50;77.80
56538;DHT22;42435;53.292;6.000;2023-08-31T07:02:44;16.70;77.20
56538;DHT22;42435;53.292;6.000;2023-08-31T07:05:10;16.80;76.80
56538;DHT22;42435;53.292;6.000;2023-08-31T07:07:36;17.00;76.50
56538;DHT22;42435;53.292;6.000;2023-08-31T07:10:02;17.20;76.20
56538;DHT22;42435;53.292;6.000;2023-08-31T07:12:28;17.40;75.80
56538;DHT22;42435;53.292;6.000;2023-08-31T07:14:56;17.50;75.30
56538;DHT22;42435;53.292;6.000;2023-08-31T07:17:22;17.70;74.60
56538;DHT22;42435;53.292;6.000;2023-08-31T07:19:48;17.80;74.00
56538;DHT22;42435;53.292;6.000;2023-08-31T07:22:13;17.90;73.50
56538;DHT22;42435;53.292;6.000;2023-08-31T07:24:39;18.10;73.00
56538;DHT22;42435;53.292;6.000;2023-08-31T07:27:04;18.30;72.40
56538;DHT22;42435;53.292;6.000;2023-08-31T07:29:31;18.40;72.30
56538;DHT22;42435;53.292;6.000;2023-08-31T07:31:57;18.50;71.90
56538;DHT22;42435;53.292;6.000;2023-08-31T07:34:23;18.70;71.40
56538;DHT22;42435;53.292;6.000;2023-08-31T07:36:48;18.80;71.00
56538;DHT22;42435;53.292;6.000;2023-08-31T07:39:14;18.90;70.60
56538;DHT22;42435;53.292;6.000;2023-08-31T07:41:43;19.00;70.00
56538;DHT22;42435;53.292;6.000;2023-08-31T07:44:08;19.10;69.70
56538;DHT22;42435;53.292;6.000;2023-08-31T07:46:34;19.20;69.30
56538;DHT22;42435;53.292;6.000;2023-08-31T07:48:59;19.30;69.30
56538;DHT22;42435;53.292;6.000;2023-08-31T07:51:25;19.40;68.80
56538;DHT22;42435;53.292;6.000;2023-08-31T07:53:51;19.50;68.00
56538;DHT22;42435;53.292;6.000;2023-08-31T07:56:17;19.60;67.40
56538;DHT22;42435;53.292;6.000;2023-08-31T07:58:43;19.70;67.00
56538;DHT22;42435;53.292;6.000;2023-08-31T08:01:09;19.80;67.30
56538;DHT22;42435;53.292;6.000;2023-08-31T08:03:35;19.90;66.40
56538;DHT22;42435;53.292;6.000;2023-08-31T08:06:00;19.90;65.40
56538;DHT22;42435;53.292;6.000;2023-08-31T08:08:28;19.90;64.60
56538;DHT22;42435;53.292;6.000;2023-08-31T08:10:55;19.90;64.00
56538;DHT22;42435;53.292;6.000;2023-08-31T08:13:23;19.70;63.70
56538;DHT22;42435;53.292;6.000;2023-08-31T08:15:49;19.50;64.00
56538;DHT22;42435;53.292;6.000;2023-08-31T08:18:15;19.30;64.10
56538;DHT22;42435;53.292;6.000;2023-08-31T08:20:40;19.00;64.50
56538;DHT22;42435;53.292;6.000;2023-08-31T08:23:06;18.90;64.90
56538;DHT22;42435;53.292;6.000;2023-08-31T08:25:32;18.70;65.40
56538;DHT22;42435;53.292;6.000;2023-08-31T08:27:58;18.50;65.90
56538;DHT22;42435;53.292;6.000;2023-08-31T08:30:26;18.40;66.70
56538;DHT22;42435;53.292;6.000;2023-08-31T08:32:52;18.40;67.60
56538;DHT22;42435;53.292;6.000;2023-08-31T08:35:18;18.60;68.00
56538;DHT22;42435;53.292;6.000;2023-08-31T08:37:43;18.70;68.10
56538;DHT22;42435;53.292;6.000;2023-08-31T08:40:10;18.90;67.90
56538;DHT22;42435;53.292;6.000;2023-08-31T08:42:40;19.20;67.60
56538;DHT22;42435;53.292;6.000;2023-08-31T08:45:11;19.50;66.70
56538;DHT22;42435;53.292;6.000;2023-08-31T08:47:39;19.80;66.20
56538;DHT22;42435;53.292;6.000;2023-08-31T08:50:05;20.00;65.90
56538;DHT22;42435;53.292;6.000;2023-08-31T08:52:31;20.20;65.90
56538;DHT22;42435;53.292;6.000;2023-08-31T08:54:57;20.30;65.50
56538;DHT22;42435;53.292;6.000;2023-08-31T08:57:24;20.20;64.80
56538;DHT22;42435;53.292;6.000;2023-08-31T08:59:50;20.00;64.60
56538;DHT22;42435;53.292;6.000;2023-08-31T09:02:16;19.70;65.20
56538;DHT22;42435;53.292;6.000;2023-08-31T09:04:41;19.50;65.70
56538;DHT22;42435;53.292;6.000;2023-08-31T09:07:07;19.30;66.50
56538;DHT22;42435;53.292;6.000;2023-08-31T09:09:33;19.10;67.30
56538;DHT22;42435;53.292;6.000;2023-08-31T09:12:13;19.00;67.60
56538;DHT22;42435;53.292;6.000;2023-08-31T09:14:38;18.80;67.90
56538;DHT22;42435;53.292;6.000;2023-08-31T09:17:04;18.70;68.20
56538;DHT22;42435;53.292;6.000;2023-08-31T09:19:29;18.60;68.40
56538;DHT22;42435;53.292;6.000;2023-08-31T09:21:57;18.40;69.00
56538;DHT22;42435;53.292;6.000;2023-08-31T09:24:23;18.20;69.40
56538;DHT22;42435;53.292;6.000;2023-08-31T09:26:57;18.10;69.80
56538;DHT22;42435;53.292;6.000;2023-08-31T09:29:23;18.00;70.80
56538;DHT22;42435;53.292;6.000;2023-08-31T09:31:49;18.10;71.50
56538;DHT22;42435;53.292;6.000;2023-08-31T09:34:15;18.20;72.10
56538;DHT22;42435;53.292;6.000;2023-08-31T09:36:41;18.50;72.50
56538;DHT22;42435;53.292;6.000;2023-08-31T09:39:08;18.80;72.60
56538;DHT22;42435;53.292;6.000;2023-08-31T09:41:34;19.00;72.20
56538;DHT22;42435;53.292;6.000;2023-08-31T09:44:17;19.30;70.90
56538;DHT22;42435;53.292;6.000;2023-08-31T09:46:45;19.40;69.10
56538;DHT22;42435;53.292;6.000;2023-08-31T09:49:14;19.40;68.90
56538;DHT22;42435;53.292;6.000;2023-08-31T09:51:49;19.30;68.50
56538;DHT22;42435;53.292;6.000;2023-08-31T09:54:16;19.20;69.00
56538;DHT22;42435;53.292;6.000;2023-08-31T09:56:43;19.10;69.50
56538;DHT22;42435;53.292;6.000;2023-08-31T09:59:12;19.00;69.30
56538;DHT22;42435;53.292;6.000;2023-08-31T10:01:38;18.90;69.00
56538;DHT22;42435;53.292;6.000;2023-08-31T10:04:04;18.80;68.90
56538;DHT22;42435;53.292;6.000;2023-08-31T10:06:32;18.60;69.30
56538;DHT22;42435;53.292;6.000;2023-08-31T10:08:57;18.60;70.30
56538;DHT22;42435;53.292;6.000;2023-08-31T10:11:27;18.60;70.90
56538;DHT22;42435;53.292;6.000;2023-08-31T10:13:55;18.60;71.00
56538;DHT22;42435;53.292;6.000;2023-08-31T10:16:21;18.70;71.30
56538;DHT22;42435;53.292;6.000;2023-08-31T10:18:50;18.90;72.30
56538;DHT22;42435;53.292;6.000;2023-08-31T10:21:17;19.10;72.30
56538;DHT22;42435;53.292;6.000;2023-08-31T10:23:47;19.20;71.20
56538;DHT22;42435;53.292;6.000;2023-08-31T10:26:29;19.30;70.40
56538;DHT22;42435;53.292;6.000;2023-08-31T10:28:56;19.40;69.40
56538;DHT22;42435;53.292;6.000;2023-08-31T10:31:32;19.50;69.50
56538;DHT22;42435;53.292;6.000;2023-08-31T10:33:59;19.70;68.10
56538;DHT22;42435;53.292;6.000;2023-08-31T10:39:17;20.20;65.50
56538;DHT22;42435;53.292;6.000;2023-08-31T10:42:04;20.40;64.40
56538;DHT22;42435;53.292;6.000;2023-08-31T10:44:31;20.70;63.60
56538;DHT22;42435;53.292;6.000;2023-08-31T10:47:00;21.00;63.80
56538;DHT22;42435;53.292;6.000;2023-08-31T10:49:25;21.20;62.90
56538;DHT22;42435;53.292;6.000;2023-08-31T10:51:56;21.40;62.50
56538;DHT22;42435;53.292;6.000;2023-08-31T10:59:24;21.30;61.40
56538;DHT22;42435;53.292;6.000;2023-08-31T11:04:26;21.20;59.80
56538;DHT22;42435;53.292;6.000;2023-08-31T11:07:12;21.10;60.50
56538;DHT22;42435;53.292;6.000;2023-08-31T11:09:37;21.10;60.20
56538;DHT22;42435;53.292;6.000;2023-08-31T11:12:03;21.20;60.70
56538;DHT22;42435;53.292;6.000;2023-08-31T11:14:29;21.30;59.20
56538;DHT22;42435;53.292;6.000;2023-08-31T11:16:55;21.40;58.80
56538;DHT22;42435;53.292;6.000;2023-08-31T11:19:21;21.40;58.70
56538;DHT22;42435;53.292;6.000;2023-08-31T11:21:48;21.60;59.40
56538;DHT22;42435;53.292;6.000;2023-08-31T11:24:16;21.80;59.20
56538;DHT22;42435;53.292;6.000;2023-08-31T11:26:41;21.90;59.70
56538;DHT22;42435;53.292;6.000;2023-08-31T11:29:07;22.10;59.00
56538;DHT22;42435;53.292;6.000;2023-08-31T11:31:38;22.20;58.70
56538;DHT22;42435;53.292;6.000;2023-08-31T11:34:15;22.10;58.30
56538;DHT22;42435;53.292;6.000;2023-08-31T11:36:42;22.00;57.50
56538;DHT22;42435;53.292;6.000;2023-08-31T11:39:09;21.80;57.60
56538;DHT22;42435;53.292;6.000;2023-08-31T11:41:36;21.70;57.00
56538;DHT22;42435;53.292;6.000;2023-08-31T11:44:04;21.50;57.10
56538;DHT22;42435;53.292;6.000;2023-08-31T11:46:33;21.40;57.90
56538;DHT22;42435;53.292;6.000;2023-08-31T11:49:02;21.30;57.90
56538;DHT22;42435;53.292;6.000;2023-08-31T11:51:31;21.30;57.90
56538;DHT22;42435;53.292;6.000;2023-08-31T11:53:57;21.40;58.50
56538;DHT22;42435;53.292;6.000;2023-08-31T11:56:25;21.50;58.50
56538;DHT22;42435;53.292;6.000;2023-08-31T11:58:51;21.50;57.90
56538;DHT22;42435;53.292;6.000;2023-08-31T12:01:21;21.60;57.50
56538;DHT22;42435;53.292;6.000;2023-08-31T12:03:47;21.70;57.10
56538;DHT22;42435;53.292;6.000;2023-08-31T12:06:19;21.80;57.40
56538;DHT22;42435;53.292;6.000;2023-08-31T12:08:44;22.00;57.20
56538;DHT22;42435;53.292;6.000;2023-08-31T12:11:11;22.10;57.40
56538;DHT22;42435;53.292;6.000;2023-08-31T12:13:36;22.20;56.50
56538;DHT22;42435;53.292;6.000;2023-08-31T12:16:05;22.20;57.30
56538;DHT22;42435;53.292;6.000;2023-08-31T12:18:37;22.30;56.90
56538;DHT22;42435;53.292;6.000;2023-08-31T12:21:03;22.40;56.70
56538;DHT22;42435;53.292;6.000;2023-08-31T12:23:30;22.50;56.30
56538;DHT22;42435;53.292;6.000;2023-08-31T12:25:55;22.60;55.50
56538;DHT22;42435;53.292;6.000;2023-08-31T12:28:26;22.50;55.50
56538;DHT22;42435;53.292;6.000;2023-08-31T12:30:55;22.50;55.80
56538;DHT22;42435;53.292;6.000;2023-08-31T12:33:23;22.50;55.40
56538;DHT22;42435;53.292;6.000;2023-08-31T12:35:50;22.50;55.20
56538;DHT22;42435;53.292;6.000;2023-08-31T12:38:16;22.50;55.20
56538;DHT22;42435;53.292;6.000;2023-08-31T12:40:41;22.60;54.60
56538;DHT22;42435;53.292;6.000;2023-08-31T12:43:07;22.70;53.80
56538;DHT22;42435;53.292;6.000;2023-08-31T12:45:33;22.80;53.40
56538;DHT22;42435;53.292;6.000;2023-08-31T12:47:59;22.80;53.60
56538;DHT22;42435;53.292;6.000;2023-08-31T12:50:28;22.60;53.90
56538;DHT22;42435;53.292;6.000;2023-08-31T12:52:53;22.50;54.30
56538;DHT22;42435;53.292;6.000;2023-08-31T12:55:19;22.40;55.00
56538;DHT22;42435;53.292;6.000;2023-08-31T12:57:45;22.50;55.50
56538;DHT22;42435;53.292;6.000;2023-08-31T13:00:11;22.50;55.80
56538;DHT22;42435;53.292;6.000;2023-08-31T13:02:41;22.60;56.30
56538;DHT22;42435;53.292;6.000;2023-08-31T13:05:08;22.90;56.10
56538;DHT22;42435;53.292;6.000;2023-08-31T13:07:35;23.00;55.20
56538;DHT22;42435;53.292;6.000;2023-08-31T13:10:03;23.10;54.60
56538;DHT22;42435;53.292;6.000;2023-08-31T13:12:32;23.10;54.60
56538;DHT22;42435;53.292;6.000;2023-08-31T13:14:59;23.20;54.80
56538;DHT22;42435;53.292;6.000;2023-08-31T13:17:24;23.30;54.20
56538;DHT22;42435;53.292;6.000;2023-08-31T13:19:55;23.50;53.90
56538;DHT22;42435;53.292;6.000;2023-08-31T13:22:21;23.50;53.00
56538;DHT22;42435;53.292;6.000;2023-08-31T13:24:49;23.50;52.30
56538;DHT22;42435;53.292;6.000;2023-08-31T13:27:14;23.40;52.20
56538;DHT22;42435;53.292;6.000;2023-08-31T13:29:41;23.20;51.80
56538;DHT22;42435;53.292;6.000;2023-08-31T13:32:07;22.90;52.90
56538;DHT22;42435;53.292;6.000;2023-08-31T13:34:34;22.60;53.60
56538;DHT22;42435;53.292;6.000;2023-08-31T13:37:00;22.40;54.10
56538;DHT22;42435;53.292;6.000;2023-08-31T13:39:29;22.20;54.70
56538;DHT22;42435;53.292;6.000;2023-08-31T13:41:55;21.90;55.20
56538;DHT22;42435;53.292;6.000;2023-08-31T13:44:21;21.70;56.10
56538;DHT22;42435;53.292;6.000;2023-08-31T13:46:50;21.60;56.80
56538;DHT22;42435;53.292;6.000;2023-08-31T13:49:21;21.50;56.90
56538;DHT22;42435;53.292;6.000;2023-08-31T13:51:49;21.30;56.80
56538;DHT22;42435;53.292;6.000;2023-08-31T13:54:14;21.10;57.10
56538;DHT22;42435;53.292;6.000;2023-08-31T13:56:40;20.90;57.40
56538;DHT22;42435;53.292;6.000;2023-08-31T13:59:05;20.80;57.70
56538;DHT22;42435;53.292;6.000;2023-08-31T14:01:32;20.70;58.40
56538;DHT22;42435;53.292;6.000;2023-08-31T14:03:58;20.60;58.90
56538;DHT22;42435;53.292;6.000;2023-08-31T14:06:23;20.60;58.90
56538;DHT22;42435;53.292;6.000;2023-08-31T14:08:49;20.60;59.00
56538;DHT22;42435;53.292;6.000;2023-08-31T14:11:14;20.50;59.10
56538;DHT22;42435;53.292;6.000;2023-08-31T14:13:43;20.40;59.60
56538;DHT22;42435;53.292;6.000;2023-08-31T14:16:08;20.30;60.40
56538;DHT22;42435;53.292;6.000;2023-08-31T14:18:34;20.20;60.10
56538;DHT22;42435;53.292;6.000;2023-08-31T14:21:00;20.10;60.00
56538;DHT22;42435;53.292;6.000;2023-08-31T14:23:26;20.00;60.10
56538;DHT22;42435;53.292;6.000;2023-08-31T14:25:53;19.90;60.50
56538;DHT22;42435;53.292;6.000;2023-08-31T14:28:19;19.90;60.90
56538;DHT22;42435;53.292;6.000;2023-08-31T14:30:44;19.90;61.20
56538;DHT22;42435;53.292;6.000;2023-08-31T14:33:10;19.90;61.10
56538;DHT22;42435;53.292;6.000;2023-08-31T14:35:39;20.00;60.60
56538;DHT22;42435;53.292;6.000;2023-08-31T14:38:05;20.10;60.10
56538;DHT22;42435;53.292;6.000;2023-08-31T14:40:31;20.20;60.30
56538;DHT22;42435;53.292;6.000;2023-08-31T14:43:00;20.40;60.30
56538;DHT22;42435;53.292;6.000;2023-08-31T14:45:26;20.50;59.80
56538;DHT22;42435;53.292;6.000;2023-08-31T14:47:51;20.70;58.20
56538;DHT22;42435;53.292;6.000;2023-08-31T14:50:17;20.80;57.80
56538;DHT22;42435;53.292;6.000;2023-08-31T14:52:42;20.90;57.30
56538;DHT22;42435;53.292;6.000;2023-08-31T14:55:08;21.10;57.00
56538;DHT22;42435;53.292;6.000;2023-08-31T14:57:33;21.20;56.90
56538;DHT22;42435;53.292;6.000;2023-08-31T14:59:59;21.30;56.20
56538;DHT22;42435;53.292;6.000;2023-08-31T15:02:25;21.40;55.80
56538;DHT22;42435;53.292;6.000;2023-08-31T15:04:51;21.40;55.70
56538;DHT22;42435;53.292;6.000;2023-08-31T15:07:17;21.50;55.60
56538;DHT22;42435;53.292;6.000;2023-08-31T15:09:43;21.60;55.40
56538;DHT22;42435;53.292;6.000;2023-08-31T15:12:08;21.60;55.40
56538;DHT22;42435;53.292;6.000;2023-08-31T15:14:34;21.70;55.00
56538;DHT22;42435;53.292;6.000;2023-08-31T15:17:00;21.70;54.90
56538;DHT22;42435;53.292;6.000;2023-08-31T15:19:25;21.80;54.90
56538;DHT22;42435;53.292;6.000;2023-08-31T15:21:51;21.80;54.70
56538;DHT22;42435;53.292;6.000;2023-08-31T15:24:16;21.80;54.90
56538;DHT22;42435;53.292;6.000;2023-08-31T15:26:42;21.70;55.10
56538;DHT22;42435;53.292;6.000;2023-08-31T15:29:09;21.70;55.00
56538;DHT22;42435;53.292;6.000;2023-08-31T15:31:34;21.60;55.00
56538;DHT22;42435;53.292;6.000;2023-08-31T15:34:00;21.40;55.20
56538;DHT22;42435;53.292;6.000;2023-08-31T15:36:26;21.30;55.60
56538;DHT22;42435;53.292;6.000;2023-08-31T15:38:52;21.20;55.60
56538;DHT22;42435;53.292;6.000;2023-08-31T15:41:18;21.00;55.90
56538;DHT22;42435;53.292;6.000;2023-08-31T15:43:43;20.90;56.10